Bungo Princess — 3FXV8 — position and weather

sailwx.info

Track history (hours):
 
Tides and Currents Weather Stations Pressure Air Temp Water Temp Dewpoint Dewpoint Depression Visibility Wind Speed Wind Dir Waves Ship Positions

Bungo Princess

Last reported at 2014-Sep-02 03:26 UTC. Time now 2014-Sep-03 07:30 UTC.
Position N 34°02' E 132°47'.

Length 103 m; draft 5.6 m.

Type: Cargo ship. MMSI: 355091000.

Date/timePositionNaut miles runAvg speedWind from/ knotsBaromVisibWave heightAir tempDewpointWater temp
2014-Sep-02 03:26N 34°02' E 132°47'  
2014-Aug-29 01:32N 22°08' E 114°13'16 2.0
2014-Aug-28 17:19N 22°06' E 113°55'7 8.7
2014-Aug-28 16:33N 22°07' E 113°48'1110.9
2014-Aug-28 15:33N 22°18' E 113°48'6 0.2
2014-Aug-27 05:33N 22°24' E 113°46'1413.0
2014-Aug-27 04:28N 22°38' E 113°42'1212.8
2014-Aug-27 03:32N 22°26' E 113°45'1111.0
2014-Aug-27 02:33N 22°16' E 113°48'9 9.3
2014-Aug-27 01:33N 22°06' E 113°49'5 3.3
2014-Aug-27 00:11N 22°05' E 113°54'0 0.0
2014-Aug-26 23:25N 22°05' E 113°54'5 4.5
2014-Aug-26 22:24N 22°05' E 113°59'17111.2
2014-Aug-26 07:05N 22°44' E 116°59'1212.5
2014-Aug-26 06:07N 22°51' E 117°10'712.4
2014-Aug-26 05:32N 22°55' E 117°16'8810.8
2014-Aug-25 21:24N 23°50' E 118°31'11611.6
2014-Aug-25 11:26N 25°03' E 120°09'  
Track history (hours):
 
Tides and Currents Weather Stations Pressure Air Temp Water Temp Dewpoint Dewpoint Depression Visibility Wind Speed Wind Dir Waves Ship Positions

Bungo Princess

Last reported at 2014-Sep-02 03:26 UTC. Time now 2014-Sep-03 07:30 UTC.
Position N 34°02' E 132°47'.

Length 103 m; draft 5.6 m.

Type: Cargo ship. MMSI: 355091000.

Date/timePositionNaut miles runAvg speedWind from/ knotsBaromVisibWave heightAir tempDewpointWater temp
2014-Sep-02 03:26N 34°02' E 132°47'  
2014-Aug-29 01:32N 22°08' E 114°13'16 2.0
2014-Aug-28 17:19N 22°06' E 113°55'7 8.7
2014-Aug-28 16:33N 22°07' E 113°48'1110.9
2014-Aug-28 15:33N 22°18' E 113°48'6 0.2
2014-Aug-27 05:33N 22°24' E 113°46'1413.0
2014-Aug-27 04:28N 22°38' E 113°42'1212.8
2014-Aug-27 03:32N 22°26' E 113°45'1111.0
2014-Aug-27 02:33N 22°16' E 113°48'9 9.3
2014-Aug-27 01:33N 22°06' E 113°49'5 3.3
2014-Aug-27 00:11N 22°05' E 113°54'0 0.0
2014-Aug-26 23:25N 22°05' E 113°54'5 4.5
2014-Aug-26 22:24N 22°05' E 113°59'17111.2
2014-Aug-26 07:05N 22°44' E 116°59'1212.5
2014-Aug-26 06:07N 22°51' E 117°10'712.4
2014-Aug-26 05:32N 22°55' E 117°16'8810.8
2014-Aug-25 21:24N 23°50' E 118°31'11611.6
2014-Aug-25 11:26N 25°03' E 120°09'  

Dump ship's entire track history